sensor_id;sensor_type;location;lat;lon;timestamp;pressure;altitude;pressure_sealevel;temperature;humidity
13312;BME280;34033;48.672;9.376;2023-05-19T00:01:54;98987.78;;;16.39;51.89
13312;BME280;34033;48.672;9.376;2023-05-19T00:04:20;98987.78;;;16.39;52.11
13312;BME280;34033;48.672;9.376;2023-05-19T00:06:49;98993.44;;;16.39;52.24
13312;BME280;34033;48.672;9.376;2023-05-19T00:09:15;98984.97;;;16.39;52.76
13312;BME280;34033;48.672;9.376;2023-05-19T00:11:41;98978.56;;;16.35;52.68
13312;BME280;34033;48.672;9.376;2023-05-19T00:14:08;98980.19;;;16.33;52.33
13312;BME280;34033;48.672;9.376;2023-05-19T00:16:34;98975.78;;;16.32;52.38
13312;BME280;34033;48.672;9.376;2023-05-19T00:19:01;98971.34;;;16.31;52.73
13312;BME280;34033;48.672;9.376;2023-05-19T00:21:28;98970.94;;;16.28;52.60
13312;BME280;34033;48.672;9.376;2023-05-19T00:23:54;98976.19;;;16.26;52.52
13312;BME280;34033;48.672;9.376;2023-05-19T00:26:19;98982.66;;;16.27;52.37
13312;BME280;34033;48.672;9.376;2023-05-19T00:28:46;98986.72;;;16.26;52.16
13312;BME280;34033;48.672;9.376;2023-05-19T00:31:12;98981.06;;;16.22;52.23
13312;BME280;34033;48.672;9.376;2023-05-19T00:33:37;98981.88;;;16.23;52.14
13312;BME280;34033;48.672;9.376;2023-05-19T00:36:03;98969.78;;;16.22;51.54
13312;BME280;34033;48.672;9.376;2023-05-19T00:38:33;98965.41;;;16.18;51.89
13312;BME280;34033;48.672;9.376;2023-05-19T00:40:59;98968.22;;;16.18;51.82
13312;BME280;34033;48.672;9.376;2023-05-19T00:43:25;98965.00;;;16.19;51.87
13312;BME280;34033;48.672;9.376;2023-05-19T00:45:50;98962.59;;;16.18;51.78
13312;BME280;34033;48.672;9.376;2023-05-19T00:48:16;98964.19;;;16.19;51.17
13312;BME280;34033;48.672;9.376;2023-05-19T00:50:41;98964.19;;;16.19;51.69
13312;BME280;34033;48.672;9.376;2023-05-19T00:53:07;98967.00;;;16.19;52.26
13312;BME280;34033;48.672;9.376;2023-05-19T00:55:33;98971.03;;;16.18;52.57
13312;BME280;34033;48.672;9.376;2023-05-19T00:58:01;98963.84;;;16.13;52.39
13312;BME280;34033;48.672;9.376;2023-05-19T01:00:28;98969.84;;;16.15;52.42
13312;BME280;34033;48.672;9.376;2023-05-19T01:02:54;98949.31;;;16.15;52.02
13312;BME280;34033;48.672;9.376;2023-05-19T01:05:20;98965.00;;;16.16;52.90
13312;BME280;34033;48.672;9.376;2023-05-19T01:07:46;98965.00;;;16.16;52.07
13312;BME280;34033;48.672;9.376;2023-05-19T01:10:11;98960.97;;;16.17;52.21
13312;BME280;34033;48.672;9.376;2023-05-19T01:12:37;98955.34;;;16.17;52.78
13312;BME280;34033;48.672;9.376;2023-05-19T01:15:03;98950.13;;;16.12;52.92
13312;BME280;34033;48.672;9.376;2023-05-19T01:20:14;98959.44;;;16.09;52.03
13312;BME280;34033;48.672;9.376;2023-05-19T01:29:05;98955.38;;;16.10;51.93
13312;BME280;34033;48.672;9.376;2023-05-19T01:31:32;98958.25;;;16.06;51.83
13312;BME280;34033;48.672;9.376;2023-05-19T01:33:59;98953.88;;;15.98;51.93
13312;BME280;34033;48.672;9.376;2023-05-19T01:36:25;98966.78;;;15.96;52.33
13312;BME280;34033;48.672;9.376;2023-05-19T01:38:54;98957.91;;;15.94;52.91
13312;BME280;34033;48.672;9.376;2023-05-19T01:41:21;98963.59;;;15.90;53.12
13312;BME280;34033;48.672;9.376;2023-05-19T01:43:47;98969.25;;;15.90;52.45
13312;BME280;34033;48.672;9.376;2023-05-19T01:46:13;98966.81;;;15.89;53.13
13312;BME280;34033;48.672;9.376;2023-05-19T01:48:40;98958.75;;;15.91;52.78
13312;BME280;34033;48.672;9.376;2023-05-19T01:51:05;98969.19;;;15.94;52.81
13312;BME280;34033;48.672;9.376;2023-05-19T01:53:30;98970.44;;;15.93;52.93
13312;BME280;34033;48.672;9.376;2023-05-19T01:55:58;98970.81;;;15.95;52.39
13312;BME280;34033;48.672;9.376;2023-05-19T01:58:52;98967.59;;;15.96;51.99
13312;BME280;34033;48.672;9.376;2023-05-19T02:01:51;98974.47;;;15.88;52.96
13312;BME280;34033;48.672;9.376;2023-05-19T02:04:33;98963.59;;;15.90;52.13
13312;BME280;34033;48.672;9.376;2023-05-19T02:07:17;98960.38;;;15.92;52.57
13312;BME280;34033;48.672;9.376;2023-05-19T02:09:54;98955.91;;;15.94;52.11
13312;BME280;34033;48.672;9.376;2023-05-19T02:12:37;98951.47;;;15.97;52.29
13312;BME280;34033;48.672;9.376;2023-05-19T02:15:12;98957.13;;;15.97;52.70
13312;BME280;34033;48.672;9.376;2023-05-19T02:17:42;98956.28;;;16.00;52.85
13312;BME280;34033;48.672;9.376;2023-05-19T02:20:12;98958.72;;;15.98;52.07
13312;BME280;34033;48.672;9.376;2023-05-19T02:22:37;98959.16;;;15.93;52.68
13312;BME280;34033;48.672;9.376;2023-05-19T02:25:03;98967.22;;;15.91;52.85
13312;BME280;34033;48.672;9.376;2023-05-19T02:27:29;98960.81;;;15.87;51.95
13312;BME280;34033;48.672;9.376;2023-05-19T02:29:54;98959.19;;;15.85;52.50
13312;BME280;34033;48.672;9.376;2023-05-19T02:32:20;98958.84;;;15.80;52.01
13312;BME280;34033;48.672;9.376;2023-05-19T02:34:46;98952.41;;;15.79;51.88
13312;BME280;34033;48.672;9.376;2023-05-19T02:37:12;98957.63;;;15.77;51.80
13312;BME280;34033;48.672;9.376;2023-05-19T02:39:39;98950.00;;;15.74;51.67
13312;BME280;34033;48.672;9.376;2023-05-19T02:42:04;98950.00;;;15.74;51.70
13312;BME280;34033;48.672;9.376;2023-05-19T02:44:30;98951.19;;;15.77;52.26
13312;BME280;34033;48.672;9.376;2023-05-19T02:46:55;98954.44;;;15.75;52.64
13312;BME280;34033;48.672;9.376;2023-05-19T02:49:20;98952.44;;;15.76;52.98
13312;BME280;34033;48.672;9.376;2023-05-19T02:51:46;98964.09;;;15.74;52.44
13312;BME280;34033;48.672;9.376;2023-05-19T02:54:11;98958.44;;;15.78;52.84
13312;BME280;34033;48.672;9.376;2023-05-19T02:56:36;98947.59;;;15.76;52.02
13312;BME280;34033;48.672;9.376;2023-05-19T02:59:02;98945.97;;;15.79;51.66
13312;BME280;34033;48.672;9.376;2023-05-19T03:01:27;98943.94;;;15.79;51.68
13312;BME280;34033;48.672;9.376;2023-05-19T03:03:52;98943.16;;;15.75;51.82
13312;BME280;34033;48.672;9.376;2023-05-19T03:06:18;98949.25;;;15.70;51.85
13312;BME280;34033;48.672;9.376;2023-05-19T03:08:43;98946.88;;;15.65;52.01
13312;BME280;34033;48.672;9.376;2023-05-19T03:11:09;98944.84;;;15.62;52.00
13312;BME280;34033;48.672;9.376;2023-05-19T03:13:34;98937.66;;;15.58;52.38
13312;BME280;34033;48.672;9.376;2023-05-19T03:16:00;98947.31;;;15.57;52.38
13312;BME280;34033;48.672;9.376;2023-05-19T03:18:26;98942.91;;;15.52;52.58
13312;BME280;34033;48.672;9.376;2023-05-19T03:20:51;98947.34;;;15.46;52.85
13312;BME280;34033;48.672;9.376;2023-05-19T03:23:19;98950.16;;;15.46;53.07
13312;BME280;34033;48.672;9.376;2023-05-19T03:25:44;98950.16;;;15.46;53.14
13312;BME280;34033;48.672;9.376;2023-05-19T03:28:09;98954.59;;;15.47;53.31
13312;BME280;34033;48.672;9.376;2023-05-19T03:30:35;98950.97;;;15.47;53.27
13312;BME280;34033;48.672;9.376;2023-05-19T03:33:00;98948.91;;;15.51;53.38
13312;BME280;34033;48.672;9.376;2023-05-19T03:35:26;98944.53;;;15.53;53.13
13312;BME280;34033;48.672;9.376;2023-05-19T03:37:51;98944.13;;;15.55;53.27
13312;BME280;34033;48.672;9.376;2023-05-19T03:40:16;98944.88;;;15.55;53.10
13312;BME280;34033;48.672;9.376;2023-05-19T03:42:42;98942.47;;;15.57;53.25
13312;BME280;34033;48.672;9.376;2023-05-19T03:45:08;98940.06;;;15.56;52.87
13312;BME280;34033;48.672;9.376;2023-05-19T03:47:33;98948.50;;;15.56;53.23
13312;BME280;34033;48.672;9.376;2023-05-19T03:49:59;98946.94;;;15.55;52.99
13312;BME280;34033;48.672;9.376;2023-05-19T03:52:25;98937.69;;;15.54;53.19
13312;BME280;34033;48.672;9.376;2023-05-19T03:54:50;98944.47;;;15.57;53.06
13312;BME280;34033;48.672;9.376;2023-05-19T03:57:17;98942.47;;;15.57;52.89
13312;BME280;34033;48.672;9.376;2023-05-19T03:59:42;98941.28;;;15.55;52.99
13312;BME280;34033;48.672;9.376;2023-05-19T04:02:08;98948.53;;;15.52;53.14
13312;BME280;34033;48.672;9.376;2023-05-19T04:04:33;98941.69;;;15.53;53.10
13312;BME280;34033;48.672;9.376;2023-05-19T04:06:58;98949.34;;;15.53;53.05
13312;BME280;34033;48.672;9.376;2023-05-19T04:09:24;98946.13;;;15.54;52.95
13312;BME280;34033;48.672;9.376;2023-05-19T04:11:49;98947.75;;;15.52;53.05
13312;BME280;34033;48.672;9.376;2023-05-19T04:14:14;98950.94;;;15.50;53.15
13312;BME280;34033;48.672;9.376;2023-05-19T04:16:40;98955.78;;;15.53;53.46
13312;BME280;34033;48.672;9.376;2023-05-19T04:19:06;98945.25;;;15.61;53.41
13312;BME280;34033;48.672;9.376;2023-05-19T04:21:31;98948.88;;;15.65;53.12
13312;BME280;34033;48.672;9.376;2023-05-19T04:23:56;98952.47;;;15.69;53.44
13312;BME280;34033;48.672;9.376;2023-05-19T04:26:24;98952.47;;;15.69;53.38
13312;BME280;34033;48.672;9.376;2023-05-19T04:28:51;98954.09;;;15.66;53.55
13312;BME280;34033;48.672;9.376;2023-05-19T04:31:18;98954.09;;;15.66;53.60
13312;BME280;34033;48.672;9.376;2023-05-19T04:33:45;98952.88;;;15.67;53.81
13312;BME280;34033;48.672;9.376;2023-05-19T04:36:12;98956.91;;;15.70;53.77
13312;BME280;34033;48.672;9.376;2023-05-19T04:38:38;98960.09;;;15.75;53.63
13312;BME280;34033;48.672;9.376;2023-05-19T04:41:06;98962.84;;;15.82;53.96
13312;BME280;34033;48.672;9.376;2023-05-19T04:43:35;98957.16;;;15.90;53.58
13312;BME280;34033;48.672;9.376;2023-05-19T04:46:02;98956.31;;;15.96;53.70
13312;BME280;34033;48.672;9.376;2023-05-19T04:48:30;98965.97;;;15.99;53.59
13312;BME280;34033;48.672;9.376;2023-05-19T04:50:56;98965.53;;;16.04;53.12
13312;BME280;34033;48.672;9.376;2023-05-19T04:53:21;98968.72;;;16.06;53.38
13312;BME280;34033;48.672;9.376;2023-05-19T04:55:49;98964.25;;;16.12;53.67
13312;BME280;34033;48.672;9.376;2023-05-19T04:58:15;98965.09;;;16.09;53.08
13312;BME280;34033;48.672;9.376;2023-05-19T05:00:41;98965.81;;;16.16;53.75
13312;BME280;34033;48.672;9.376;2023-05-19T05:03:06;98971.03;;;16.18;53.93
13312;BME280;34033;48.672;9.376;2023-05-19T05:05:33;98962.91;;;16.27;54.03
13312;BME280;34033;48.672;9.376;2023-05-19T05:07:59;98970.59;;;16.23;53.77
13312;BME280;34033;48.672;9.376;2023-05-19T05:10:24;98968.19;;;16.25;53.69
13312;BME280;34033;48.672;9.376;2023-05-19T05:12:50;98968.75;;;16.02;52.50
13312;BME280;34033;48.672;9.376;2023-05-19T05:15:16;98967.06;;;16.12;53.88
13312;BME280;34033;48.672;9.376;2023-05-19T05:17:41;98969.00;;;16.22;53.54
13312;BME280;34033;48.672;9.376;2023-05-19T05:20:08;98968.19;;;16.21;52.58
13312;BME280;34033;48.672;9.376;2023-05-19T05:22:34;98965.09;;;16.09;53.49
13312;BME280;34033;48.672;9.376;2023-05-19T05:25:00;98954.66;;;16.02;53.80
13312;BME280;34033;48.672;9.376;2023-05-19T05:27:26;98953.97;;;15.84;53.95
13312;BME280;34033;48.672;9.376;2023-05-19T05:29:51;98954.75;;;15.88;54.35
13312;BME280;34033;48.672;9.376;2023-05-19T05:32:17;98961.97;;;15.93;53.77
13312;BME280;34033;48.672;9.376;2023-05-19T05:34:42;98962.81;;;15.86;53.20
13312;BME280;34033;48.672;9.376;2023-05-19T05:37:08;98958.91;;;15.69;54.07
13312;BME280;34033;48.672;9.376;2023-05-19T05:39:33;98961.81;;;15.48;53.84
13312;BME280;34033;48.672;9.376;2023-05-19T05:41:58;98957.38;;;15.58;55.45
13312;BME280;34033;48.672;9.376;2023-05-19T05:44:23;98961.03;;;15.55;55.00
13312;BME280;34033;48.672;9.376;2023-05-19T05:46:49;98967.78;;;15.68;55.75
13312;BME280;34033;48.672;9.376;2023-05-19T05:49:15;98962.88;;;15.79;55.10
13312;BME280;34033;48.672;9.376;2023-05-19T05:51:40;98959.59;;;15.88;54.83
13312;BME280;34033;48.672;9.376;2023-05-19T05:54:06;98967.56;;;16.00;54.67
13312;BME280;34033;48.672;9.376;2023-05-19T05:56:32;98965.66;;;15.82;54.21
13312;BME280;34033;48.672;9.376;2023-05-19T05:58:58;98968.84;;;15.92;54.56
13312;BME280;34033;48.672;9.376;2023-05-19T06:01:23;98964.81;;;15.93;54.19
13312;BME280;34033;48.672;9.376;2023-05-19T06:03:49;98961.72;;;15.69;53.17
13312;BME280;34033;48.672;9.376;2023-05-19T06:06:14;98973.25;;;15.89;55.26
13312;BME280;34033;48.672;9.376;2023-05-19T06:08:40;98967.19;;;15.98;54.03
13312;BME280;34033;48.672;9.376;2023-05-19T06:11:05;98967.56;;;16.00;53.72
13312;BME280;34033;48.672;9.376;2023-05-19T06:13:34;98963.88;;;16.06;53.93
13312;BME280;34033;48.672;9.376;2023-05-19T06:16:00;98965.09;;;16.05;53.75
13312;BME280;34033;48.672;9.376;2023-05-19T06:18:26;98963.91;;;16.03;53.40
13312;BME280;34033;48.672;9.376;2023-05-19T06:20:51;98965.91;;;16.06;53.23
13312;BME280;34033;48.672;9.376;2023-05-19T06:23:16;98968.34;;;16.00;53.17
13312;BME280;34033;48.672;9.376;2023-05-19T06:25:42;98967.91;;;16.09;53.63
13312;BME280;34033;48.672;9.376;2023-05-19T06:28:07;98962.63;;;16.14;53.73
13312;BME280;34033;48.672;9.376;2023-05-19T06:30:32;98961.47;;;16.08;52.89
13312;BME280;34033;48.672;9.376;2023-05-19T06:32:58;98961.41;;;16.12;53.03
13312;BME280;34033;48.672;9.376;2023-05-19T06:35:23;98957.06;;;16.04;53.46
13312;BME280;34033;48.672;9.376;2023-05-19T06:37:48;98960.44;;;15.77;52.99
13312;BME280;34033;48.672;9.376;2023-05-19T06:40:14;98962.91;;;15.75;53.49
13312;BME280;34033;48.672;9.376;2023-05-19T06:42:39;98968.31;;;16.07;54.59
13312;BME280;34033;48.672;9.376;2023-05-19T06:45:05;98958.41;;;16.33;53.12
13312;BME280;34033;48.672;9.376;2023-05-19T06:47:30;98954.25;;;16.48;52.03
13312;BME280;34033;48.672;9.376;2023-05-19T06:49:56;98963.56;;;16.45;51.64
13312;BME280;34033;48.672;9.376;2023-05-19T06:52:21;98964.72;;;16.51;51.53
13312;BME280;34033;48.672;9.376;2023-05-19T06:54:48;98964.28;;;16.53;50.32
13312;BME280;34033;48.672;9.376;2023-05-19T06:57:13;98964.59;;;16.65;51.70
13312;BME280;34033;48.672;9.376;2023-05-19T06:59:39;98960.06;;;16.75;51.30
13312;BME280;34033;48.672;9.376;2023-05-19T07:02:08;98961.84;;;16.96;52.10
13312;BME280;34033;48.672;9.376;2023-05-19T07:04:36;98959.03;;;16.96;50.93
13312;BME280;34033;48.672;9.376;2023-05-19T07:07:02;98958.13;;;16.65;50.40
13312;BME280;34033;48.672;9.376;2023-05-19T07:09:28;98957.44;;;16.50;50.39
13312;BME280;34033;48.672;9.376;2023-05-19T07:11:53;98966.56;;;16.24;51.30
13312;BME280;34033;48.672;9.376;2023-05-19T07:14:20;98961.91;;;16.00;51.33
13312;BME280;34033;48.672;9.376;2023-05-19T07:16:45;98962.72;;;16.04;52.15
13312;BME280;34033;48.672;9.376;2023-05-19T07:19:11;98965.81;;;16.20;52.07
13312;BME280;34033;48.672;9.376;2023-05-19T07:21:36;98965.63;;;16.38;52.42
13312;BME280;34033;48.672;9.376;2023-05-19T07:24:01;98957.81;;;16.56;52.07
13312;BME280;34033;48.672;9.376;2023-05-19T07:26:27;98958.88;;;16.73;51.65
13312;BME280;34033;48.672;9.376;2023-05-19T07:28:53;98963.84;;;16.58;51.01
13312;BME280;34033;48.672;9.376;2023-05-19T07:31:18;98955.03;;;16.52;51.93
13312;BME280;34033;48.672;9.376;2023-05-19T07:33:43;98949.78;;;16.51;51.17
13312;BME280;34033;48.672;9.376;2023-05-19T07:36:09;98953.03;;;16.49;51.31
13312;BME280;34033;48.672;9.376;2023-05-19T07:38:35;98950.31;;;16.39;51.50
13312;BME280;34033;48.672;9.376;2023-05-19T07:41:01;98948.06;;;16.19;51.47
13312;BME280;34033;48.672;9.376;2023-05-19T07:43:26;98952.41;;;16.27;52.38
13312;BME280;34033;48.672;9.376;2023-05-19T07:45:52;98942.22;;;16.41;52.38
13312;BME280;34033;48.672;9.376;2023-05-19T07:48:18;98946.06;;;16.64;52.47
13312;BME280;34033;48.672;9.376;2023-05-19T07:50:46;98947.38;;;16.49;50.86
13312;BME280;34033;48.672;9.376;2023-05-19T07:53:12;98948.53;;;16.59;51.49
13312;BME280;34033;48.672;9.376;2023-05-19T07:55:37;98947.44;;;16.87;51.88
13312;BME280;34033;48.672;9.376;2023-05-19T07:58:02;98949.28;;;17.00;51.15
13312;BME280;34033;48.672;9.376;2023-05-19T08:00:28;98945.16;;;17.08;50.29
13312;BME280;34033;48.672;9.376;2023-05-19T08:02:53;98952.13;;;17.00;50.41
13312;BME280;34033;48.672;9.376;2023-05-19T08:05:20;98946.25;;;17.18;50.72
13312;BME280;34033;48.672;9.376;2023-05-19T08:07:46;98943.63;;;17.34;50.30
13312;BME280;34033;48.672;9.376;2023-05-19T08:10:11;98939.00;;;17.47;49.28
13312;BME280;34033;48.672;9.376;2023-05-19T08:12:36;98942.69;;;17.44;49.59
13312;BME280;34033;48.672;9.376;2023-05-19T08:15:02;98934.72;;;17.36;48.66
13312;BME280;34033;48.672;9.376;2023-05-19T08:17:27;98940.75;;;17.04;49.28
13312;BME280;34033;48.672;9.376;2023-05-19T08:19:53;98939.84;;;17.14;49.89
13312;BME280;34033;48.672;9.376;2023-05-19T08:22:18;98938.13;;;17.20;49.41
13312;BME280;34033;48.672;9.376;2023-05-19T08:24:43;98930.72;;;17.33;49.87
13312;BME280;34033;48.672;9.376;2023-05-19T08:27:09;98926.59;;;17.41;49.47
13312;BME280;34033;48.672;9.376;2023-05-19T08:29:35;98920.94;;;17.41;49.16
13312;BME280;34033;48.672;9.376;2023-05-19T08:32:00;98929.03;;;17.39;48.46
13312;BME280;34033;48.672;9.376;2023-05-19T08:34:26;98917.88;;;17.29;48.45
13312;BME280;34033;48.672;9.376;2023-05-19T08:36:52;98922.72;;;17.55;48.93
13312;BME280;34033;48.672;9.376;2023-05-19T08:39:17;98919.06;;;17.58;48.16
13312;BME280;34033;48.672;9.376;2023-05-19T08:41:48;98915.00;;;17.63;47.69
13312;BME280;34033;48.672;9.376;2023-05-19T08:44:13;98921.31;;;17.70;48.43
13312;BME280;34033;48.672;9.376;2023-05-19T08:46:39;98914.66;;;17.84;48.18
13312;BME280;34033;48.672;9.376;2023-05-19T08:49:10;98913.78;;;17.87;47.75
13312;BME280;34033;48.672;9.376;2023-05-19T08:54:20;98913.94;;;17.80;47.53
13312;BME280;34033;48.672;9.376;2023-05-19T08:56:50;98916.78;;;17.76;47.86
13312;BME280;34033;48.672;9.376;2023-05-19T08:59:16;98922.03;;;17.78;48.29
13312;BME280;34033;48.672;9.376;2023-05-19T09:01:44;98912.84;;;17.97;48.03
13312;BME280;34033;48.672;9.376;2023-05-19T09:04:10;98912.25;;;17.82;47.40
13312;BME280;34033;48.672;9.376;2023-05-19T09:06:36;98904.78;;;17.96;48.01
13312;BME280;34033;48.672;9.376;2023-05-19T09:09:05;98906.22;;;18.07;47.80
13312;BME280;34033;48.672;9.376;2023-05-19T09:11:30;98908.00;;;18.21;47.30
13312;BME280;34033;48.672;9.376;2023-05-19T09:13:56;98906.84;;;18.18;46.77
13312;BME280;34033;48.672;9.376;2023-05-19T09:16:21;98905.03;;;18.05;46.71
13312;BME280;34033;48.672;9.376;2023-05-19T09:18:54;98909.50;;;17.79;47.34
13312;BME280;34033;48.672;9.376;2023-05-19T09:21:26;98906.31;;;17.46;47.38
13312;BME280;34033;48.672;9.376;2023-05-19T09:23:52;98918.44;;;17.47;47.97
13312;BME280;34033;48.672;9.376;2023-05-19T09:26:20;98907.38;;;17.29;48.20
13312;BME280;34033;48.672;9.376;2023-05-19T09:28:47;98916.34;;;17.21;48.43
13312;BME280;34033;48.672;9.376;2023-05-19T09:31:12;98907.81;;;16.94;48.34
13312;BME280;34033;48.672;9.376;2023-05-19T09:33:39;98908.81;;;16.77;49.50
13312;BME280;34033;48.672;9.376;2023-05-19T09:36:05;98898.25;;;16.84;49.59
13312;BME280;34033;48.672;9.376;2023-05-19T09:38:33;98908.34;;;16.82;49.81
13312;BME280;34033;48.672;9.376;2023-05-19T09:41:00;98906.78;;;16.81;49.79
13312;BME280;34033;48.672;9.376;2023-05-19T09:43:31;98907.22;;;16.76;49.79
13312;BME280;34033;48.672;9.376;2023-05-19T09:46:08;98913.25;;;16.78;49.89
13312;BME280;34033;48.672;9.376;2023-05-19T09:48:35;98897.44;;;16.84;49.63
13312;BME280;34033;48.672;9.376;2023-05-19T09:51:02;98892.53;;;16.91;49.36
13312;BME280;34033;48.672;9.376;2023-05-19T09:53:29;98889.97;;;17.00;49.44
13312;BME280;34033;48.672;9.376;2023-05-19T09:56:00;98884.91;;;17.19;50.06
13312;BME280;34033;48.672;9.376;2023-05-19T09:58:30;98887.59;;;17.29;49.53
13312;BME280;34033;48.672;9.376;2023-05-19T10:00:56;98890.34;;;17.33;48.91
13312;BME280;34033;48.672;9.376;2023-05-19T10:03:22;98894.69;;;17.41;49.25
13312;BME280;34033;48.672;9.376;2023-05-19T10:05:49;98895.97;;;17.36;49.23
13312;BME280;34033;48.672;9.376;2023-05-19T10:08:16;98898.19;;;17.48;49.46
13312;BME280;34033;48.672;9.376;2023-05-19T10:10:43;98899.00;;;17.49;49.48
13312;BME280;34033;48.672;9.376;2023-05-19T10:13:09;98896.16;;;17.49;48.62
13312;BME280;34033;48.672;9.376;2023-05-19T10:15:36;98892.84;;;17.58;48.65
13312;BME280;34033;48.672;9.376;2023-05-19T10:18:02;98896.97;;;17.80;49.93
13312;BME280;34033;48.672;9.376;2023-05-19T10:20:28;98894.63;;;17.98;48.75
13312;BME280;34033;48.672;9.376;2023-05-19T10:22:53;98902.09;;;18.12;48.05
13312;BME280;34033;48.672;9.376;2023-05-19T10:25:19;98910.81;;;18.21;47.75
13312;BME280;34033;48.672;9.376;2023-05-19T10:30:28;98903.97;;;17.95;46.42
13312;BME280;34033;48.672;9.376;2023-05-19T10:32:55;98898.78;;;17.67;47.32
13312;BME280;34033;48.672;9.376;2023-05-19T10:41:29;98897.16;;;17.66;47.41
13312;BME280;34033;48.672;9.376;2023-05-19T10:44:08;98898.84;;;17.63;48.29
13312;BME280;34033;48.672;9.376;2023-05-19T10:46:39;98897.66;;;17.61;48.03
13312;BME280;34033;48.672;9.376;2023-05-19T10:49:06;98902.34;;;17.71;48.69
13312;BME280;34033;48.672;9.376;2023-05-19T10:51:32;98893.75;;;17.78;48.22
13312;BME280;34033;48.672;9.376;2023-05-19T10:54:02;98889.97;;;17.61;47.05
13312;BME280;34033;48.672;9.376;2023-05-19T10:56:33;98891.16;;;17.64;46.94
13312;BME280;34033;48.672;9.376;2023-05-19T10:59:00;98892.94;;;17.50;47.07
13312;BME280;34033;48.672;9.376;2023-05-19T11:01:31;98897.59;;;17.64;47.81
13312;BME280;34033;48.672;9.376;2023-05-19T11:04:03;98887.69;;;17.49;47.51
13312;BME280;34033;48.672;9.376;2023-05-19T11:06:30;98890.00;;;17.58;47.46
13312;BME280;34033;48.672;9.376;2023-05-19T11:09:22;98901.19;;;17.68;48.03
13312;BME280;34033;48.672;9.376;2023-05-19T11:11:49;98893.50;;;17.69;47.19
13312;BME280;34033;48.672;9.376;2023-05-19T11:14:19;98890.84;;;17.55;47.06
13312;BME280;34033;48.672;9.376;2023-05-19T11:16:49;98891.47;;;17.69;48.12
13312;BME280;34033;48.672;9.376;2023-05-19T11:21:50;98888.31;;;17.90;48.23
13312;BME280;34033;48.672;9.376;2023-05-19T11:29:59;98888.75;;;18.36;47.37
13312;BME280;34033;48.672;9.376;2023-05-19T11:32:28;98892.81;;;18.34;47.52
13312;BME280;34033;48.672;9.376;2023-05-19T11:34:54;98889.59;;;18.32;46.82
13312;BME280;34033;48.672;9.376;2023-05-19T11:37:20;98893.94;;;18.37;47.24
13312;BME280;34033;48.672;9.376;2023-05-19T11:39:46;98890.31;;;18.37;46.74
13312;BME280;34033;48.672;9.376;2023-05-19T11:42:12;98904.16;;;18.31;46.75
13312;BME280;34033;48.672;9.376;2023-05-19T11:44:38;98899.25;;;18.35;46.84
13312;BME280;34033;48.672;9.376;2023-05-19T11:47:05;98900.09;;;18.32;46.21
13312;BME280;34033;48.672;9.376;2023-05-19T11:49:31;98899.19;;;18.39;46.26
13312;BME280;34033;48.672;9.376;2023-05-19T11:51:56;98892.66;;;18.42;47.46
13312;BME280;34033;48.672;9.376;2023-05-19T11:54:31;98885.41;;;18.41;46.69
13312;BME280;34033;48.672;9.376;2023-05-19T11:57:04;98879.09;;;18.53;46.92
13312;BME280;34033;48.672;9.376;2023-05-19T11:59:34;98878.06;;;18.66;46.84
13312;BME280;34033;48.672;9.376;2023-05-19T12:02:01;98880.81;;;18.70;45.95
13312;BME280;34033;48.672;9.376;2023-05-19T12:04:29;98878.00;;;18.70;45.43
13312;BME280;34033;48.672;9.376;2023-05-19T12:06:54;98878.28;;;18.75;46.17
13312;BME280;34033;48.672;9.376;2023-05-19T12:09:21;98880.47;;;18.68;45.46
13312;BME280;34033;48.672;9.376;2023-05-19T12:11:48;98882.28;;;18.78;46.16
13312;BME280;34033;48.672;9.376;2023-05-19T12:14:13;98875.44;;;18.56;45.54
13312;BME280;34033;48.672;9.376;2023-05-19T12:16:39;98878.28;;;18.56;45.47
13312;BME280;34033;48.672;9.376;2023-05-19T12:19:06;98874.81;;;18.45;45.75
13312;BME280;34033;48.672;9.376;2023-05-19T12:21:31;98877.91;;;18.30;45.35
13312;BME280;34033;48.672;9.376;2023-05-19T12:23:58;98891.16;;;18.14;46.03
13312;BME280;34033;48.672;9.376;2023-05-19T12:26:23;98879.03;;;17.90;47.18
13312;BME280;34033;48.672;9.376;2023-05-19T12:28:50;98882.88;;;18.00;47.17
13312;BME280;34033;48.672;9.376;2023-05-19T12:31:17;98881.09;;;18.09;46.78
13312;BME280;34033;48.672;9.376;2023-05-19T12:33:42;98881.41;;;18.15;47.61
13312;BME280;34033;48.672;9.376;2023-05-19T12:36:09;98880.69;;;18.34;47.46
13312;BME280;34033;48.672;9.376;2023-05-19T12:38:34;98887.59;;;18.53;47.15
13312;BME280;34033;48.672;9.376;2023-05-19T12:41:01;98887.22;;;18.74;46.95
13312;BME280;34033;48.672;9.376;2023-05-19T12:43:27;98881.94;;;18.96;46.40
13312;BME280;34033;48.672;9.376;2023-05-19T12:45:52;98888.09;;;19.10;46.18
13312;BME280;34033;48.672;9.376;2023-05-19T12:48:20;98885.78;;;19.05;45.06
13312;BME280;34033;48.672;9.376;2023-05-19T12:50:47;98882.56;;;19.03;45.56
13312;BME280;34033;48.672;9.376;2023-05-19T12:53:13;98881.84;;;18.99;45.72
13312;BME280;34033;48.672;9.376;2023-05-19T12:55:43;98886.00;;;18.95;46.15
13312;BME280;34033;48.672;9.376;2023-05-19T12:58:10;98883.69;;;18.47;45.68
13312;BME280;34033;48.672;9.376;2023-05-19T13:00:41;98884.06;;;18.25;46.41
13312;BME280;34033;48.672;9.376;2023-05-19T13:03:14;98885.97;;;18.32;47.20
13312;BME280;34033;48.672;9.376;2023-05-19T13:05:43;98882.28;;;18.35;47.17
13312;BME280;34033;48.672;9.376;2023-05-19T13:08:12;98883.53;;;18.54;47.54
13312;BME280;34033;48.672;9.376;2023-05-19T13:10:40;98886.94;;;18.68;47.79
13312;BME280;34033;48.672;9.376;2023-05-19T13:13:07;98882.28;;;18.78;47.04
13312;BME280;34033;48.672;9.376;2023-05-19T13:15:33;98874.81;;;18.68;46.15
13312;BME280;34033;48.672;9.376;2023-05-19T13:18:00;98861.88;;;18.67;47.07
13312;BME280;34033;48.672;9.376;2023-05-19T13:20:26;98875.91;;;18.74;46.70
13312;BME280;34033;48.672;9.376;2023-05-19T13:22:51;98864.88;;;18.80;46.49
13312;BME280;34033;48.672;9.376;2023-05-19T13:25:17;98871.75;;;18.79;46.69
13312;BME280;34033;48.672;9.376;2023-05-19T13:27:43;98870.06;;;18.81;46.99